sensor_id;sensor_type;location;lat;lon;timestamp;pressure;altitude;pressure_sealevel;temperature
20289;BMP180;10303;51.960;8.372;2023-11-21T00:01:38;99892.00;;;10.30
20289;BMP180;10303;51.960;8.372;2023-11-21T00:04:04;99906.00;;;10.30
20289;BMP180;10303;51.960;8.372;2023-11-21T00:06:30;99902.00;;;10.30
20289;BMP180;10303;51.960;8.372;2023-11-21T00:08:56;99911.00;;;10.30
20289;BMP180;10303;51.960;8.372;2023-11-21T00:11:22;99902.00;;;10.40
20289;BMP180;10303;51.960;8.372;2023-11-21T00:13:48;99902.00;;;10.40
20289;BMP180;10303;51.960;8.372;2023-11-21T00:16:14;99905.00;;;10.40
20289;BMP180;10303;51.960;8.372;2023-11-21T00:18:40;99909.00;;;10.50
20289;BMP180;10303;51.960;8.372;2023-11-21T00:21:06;99907.00;;;10.50
20289;BMP180;10303;51.960;8.372;2023-11-21T00:23:32;99908.00;;;10.50
20289;BMP180;10303;51.960;8.372;2023-11-21T00:25:58;99913.00;;;10.60
20289;BMP180;10303;51.960;8.372;2023-11-21T00:28:26;99921.00;;;10.60
20289;BMP180;10303;51.960;8.372;2023-11-21T00:30:52;99922.00;;;10.60
20289;BMP180;10303;51.960;8.372;2023-11-21T00:33:18;99923.00;;;10.70
20289;BMP180;10303;51.960;8.372;2023-11-21T00:35:45;99927.00;;;10.70
20289;BMP180;10303;51.960;8.372;2023-11-21T00:38:11;99927.00;;;10.70
20289;BMP180;10303;51.960;8.372;2023-11-21T00:40:37;99924.00;;;10.70
20289;BMP180;10303;51.960;8.372;2023-11-21T00:43:03;99923.00;;;10.80
20289;BMP180;10303;51.960;8.372;2023-11-21T00:45:29;99921.00;;;10.80
20289;BMP180;10303;51.960;8.372;2023-11-21T00:47:55;99921.00;;;10.80
20289;BMP180;10303;51.960;8.372;2023-11-21T00:50:22;99918.00;;;10.80
20289;BMP180;10303;51.960;8.372;2023-11-21T00:52:48;99915.00;;;10.80
20289;BMP180;10303;51.960;8.372;2023-11-21T00:55:14;99919.00;;;10.90
20289;BMP180;10303;51.960;8.372;2023-11-21T00:57:40;99920.00;;;10.90
20289;BMP180;10303;51.960;8.372;2023-11-21T01:00:06;99923.00;;;10.90
20289;BMP180;10303;51.960;8.372;2023-11-21T01:02:46;99929.00;;;10.90
20289;BMP180;10303;51.960;8.372;2023-11-21T01:05:14;99931.00;;;10.90
20289;BMP180;10303;51.960;8.372;2023-11-21T01:07:40;99942.00;;;11.00
20289;BMP180;10303;51.960;8.372;2023-11-21T01:10:06;99938.00;;;11.00
20289;BMP180;10303;51.960;8.372;2023-11-21T01:12:38;99938.00;;;11.00
20289;BMP180;10303;51.960;8.372;2023-11-21T01:15:06;99947.00;;;11.00
20289;BMP180;10303;51.960;8.372;2023-11-21T01:17:38;99958.00;;;11.10
20289;BMP180;10303;51.960;8.372;2023-11-21T01:20:05;99957.00;;;11.10
20289;BMP180;10303;51.960;8.372;2023-11-21T01:22:37;99951.00;;;11.10
20289;BMP180;10303;51.960;8.372;2023-11-21T01:25:03;99946.00;;;11.10
20289;BMP180;10303;51.960;8.372;2023-11-21T01:27:35;99948.00;;;11.20
20289;BMP180;10303;51.960;8.372;2023-11-21T01:30:03;99952.00;;;11.20
20289;BMP180;10303;51.960;8.372;2023-11-21T01:32:30;99958.00;;;11.20
20289;BMP180;10303;51.960;8.372;2023-11-21T01:34:56;99949.00;;;11.20
20289;BMP180;10303;51.960;8.372;2023-11-21T01:37:22;99945.00;;;11.20
20289;BMP180;10303;51.960;8.372;2023-11-21T01:39:49;99943.00;;;11.30
20289;BMP180;10303;51.960;8.372;2023-11-21T01:42:15;99944.00;;;11.30
20289;BMP180;10303;51.960;8.372;2023-11-21T01:44:40;99947.00;;;11.30
20289;BMP180;10303;51.960;8.372;2023-11-21T01:47:08;99950.00;;;11.30
20289;BMP180;10303;51.960;8.372;2023-11-21T01:49:36;99942.00;;;11.30
20289;BMP180;10303;51.960;8.372;2023-11-21T01:52:03;99935.00;;;11.30
20289;BMP180;10303;51.960;8.372;2023-11-21T01:54:30;99950.00;;;11.30
20289;BMP180;10303;51.960;8.372;2023-11-21T01:57:01;99950.00;;;11.30
20289;BMP180;10303;51.960;8.372;2023-11-21T01:59:35;99943.00;;;11.30
20289;BMP180;10303;51.960;8.372;2023-11-21T02:02:06;99952.00;;;11.30
20289;BMP180;10303;51.960;8.372;2023-11-21T02:04:34;99936.00;;;11.40
20289;BMP180;10303;51.960;8.372;2023-11-21T02:07:00;99940.00;;;11.40
20289;BMP180;10303;51.960;8.372;2023-11-21T02:09:28;99946.00;;;11.40
20289;BMP180;10303;51.960;8.372;2023-11-21T02:11:56;99940.00;;;11.40
20289;BMP180;10303;51.960;8.372;2023-11-21T02:14:23;99953.00;;;11.40
20289;BMP180;10303;51.960;8.372;2023-11-21T02:16:51;99967.00;;;11.40
20289;BMP180;10303;51.960;8.372;2023-11-21T02:19:19;99960.00;;;11.40
20289;BMP180;10303;51.960;8.372;2023-11-21T02:21:52;99971.00;;;11.50
20289;BMP180;10303;51.960;8.372;2023-11-21T02:24:20;99971.00;;;11.50
20289;BMP180;10303;51.960;8.372;2023-11-21T02:26:48;99970.00;;;11.50
20289;BMP180;10303;51.960;8.372;2023-11-21T02:29:14;99976.00;;;11.50
20289;BMP180;10303;51.960;8.372;2023-11-21T02:31:43;99985.00;;;11.50
20289;BMP180;10303;51.960;8.372;2023-11-21T02:34:17;99971.00;;;11.50
20289;BMP180;10303;51.960;8.372;2023-11-21T02:36:44;99979.00;;;11.60
20289;BMP180;10303;51.960;8.372;2023-11-21T02:39:11;99990.00;;;11.60
20289;BMP180;10303;51.960;8.372;2023-11-21T02:41:38;99988.00;;;11.60
20289;BMP180;10303;51.960;8.372;2023-11-21T02:44:06;99987.00;;;11.60
20289;BMP180;10303;51.960;8.372;2023-11-21T02:46:36;99988.00;;;11.60
20289;BMP180;10303;51.960;8.372;2023-11-21T02:49:06;99983.00;;;11.60
20289;BMP180;10303;51.960;8.372;2023-11-21T02:51:33;99980.00;;;11.60
20289;BMP180;10303;51.960;8.372;2023-11-21T02:54:00;99987.00;;;11.60
20289;BMP180;10303;51.960;8.372;2023-11-21T02:56:29;99986.00;;;11.70
20289;BMP180;10303;51.960;8.372;2023-11-21T02:59:00;99997.00;;;11.60
20289;BMP180;10303;51.960;8.372;2023-11-21T03:01:27;99999.00;;;11.70
20289;BMP180;10303;51.960;8.372;2023-11-21T03:03:53;99988.00;;;11.70
20289;BMP180;10303;51.960;8.372;2023-11-21T03:06:21;99993.00;;;11.70
20289;BMP180;10303;51.960;8.372;2023-11-21T03:08:47;99990.00;;;11.70
20289;BMP180;10303;51.960;8.372;2023-11-21T03:11:13;99997.00;;;11.70
20289;BMP180;10303;51.960;8.372;2023-11-21T03:13:41;99987.00;;;11.70
20289;BMP180;10303;51.960;8.372;2023-11-21T03:16:11;99988.00;;;11.70
20289;BMP180;10303;51.960;8.372;2023-11-21T03:18:38;100000.00;;;11.70
20289;BMP180;10303;51.960;8.372;2023-11-21T03:21:06;99996.00;;;11.70
20289;BMP180;10303;51.960;8.372;2023-11-21T03:23:35;100000.00;;;11.80
20289;BMP180;10303;51.960;8.372;2023-11-21T03:26:03;100003.00;;;11.70
20289;BMP180;10303;51.960;8.372;2023-11-21T03:28:29;100010.00;;;11.70
20289;BMP180;10303;51.960;8.372;2023-11-21T03:30:57;100014.00;;;11.80
20289;BMP180;10303;51.960;8.372;2023-11-21T03:33:23;100018.00;;;11.80
20289;BMP180;10303;51.960;8.372;2023-11-21T03:35:50;100024.00;;;11.70
20289;BMP180;10303;51.960;8.372;2023-11-21T03:38:18;100024.00;;;11.70
20289;BMP180;10303;51.960;8.372;2023-11-21T03:40:45;100021.00;;;11.80
20289;BMP180;10303;51.960;8.372;2023-11-21T03:43:11;100030.00;;;11.70
20289;BMP180;10303;51.960;8.372;2023-11-21T03:45:37;100038.00;;;11.70
20289;BMP180;10303;51.960;8.372;2023-11-21T03:48:03;100045.00;;;11.80
20289;BMP180;10303;51.960;8.372;2023-11-21T03:50:29;100039.00;;;11.70
20289;BMP180;10303;51.960;8.372;2023-11-21T03:52:55;100042.00;;;11.70
20289;BMP180;10303;51.960;8.372;2023-11-21T03:55:21;100041.00;;;11.70
20289;BMP180;10303;51.960;8.372;2023-11-21T03:57:49;100046.00;;;11.70
20289;BMP180;10303;51.960;8.372;2023-11-21T04:00:15;100058.00;;;11.70
20289;BMP180;10303;51.960;8.372;2023-11-21T04:02:41;100052.00;;;11.70
20289;BMP180;10303;51.960;8.372;2023-11-21T04:05:07;100062.00;;;11.70
20289;BMP180;10303;51.960;8.372;2023-11-21T04:07:35;100057.00;;;11.70
20289;BMP180;10303;51.960;8.372;2023-11-21T04:10:03;100063.00;;;11.70
20289;BMP180;10303;51.960;8.372;2023-11-21T04:12:29;100067.00;;;11.70
20289;BMP180;10303;51.960;8.372;2023-11-21T04:14:55;100077.00;;;11.70
20289;BMP180;10303;51.960;8.372;2023-11-21T04:17:21;100076.00;;;11.70
20289;BMP180;10303;51.960;8.372;2023-11-21T04:19:47;100075.00;;;11.70
20289;BMP180;10303;51.960;8.372;2023-11-21T04:22:13;100079.00;;;11.70
20289;BMP180;10303;51.960;8.372;2023-11-21T04:24:38;100082.00;;;11.70
20289;BMP180;10303;51.960;8.372;2023-11-21T04:27:04;100079.00;;;11.70
20289;BMP180;10303;51.960;8.372;2023-11-21T04:29:30;100086.00;;;11.70
20289;BMP180;10303;51.960;8.372;2023-11-21T04:31:56;100080.00;;;11.70
20289;BMP180;10303;51.960;8.372;2023-11-21T04:34:22;100078.00;;;11.70
20289;BMP180;10303;51.960;8.372;2023-11-21T04:36:50;100076.00;;;11.60
20289;BMP180;10303;51.960;8.372;2023-11-21T04:39:16;100080.00;;;11.70
20289;BMP180;10303;51.960;8.372;2023-11-21T04:41:42;100080.00;;;11.70
20289;BMP180;10303;51.960;8.372;2023-11-21T04:44:08;100081.00;;;11.60
20289;BMP180;10303;51.960;8.372;2023-11-21T04:46:34;100088.00;;;11.60
20289;BMP180;10303;51.960;8.372;2023-11-21T04:49:00;100098.00;;;11.60
20289;BMP180;10303;51.960;8.372;2023-11-21T04:51:26;100094.00;;;11.60
20289;BMP180;10303;51.960;8.372;2023-11-21T04:53:53;100088.00;;;11.60
20289;BMP180;10303;51.960;8.372;2023-11-21T04:56:19;100088.00;;;11.60
20289;BMP180;10303;51.960;8.372;2023-11-21T04:58:45;100092.00;;;11.60
20289;BMP180;10303;51.960;8.372;2023-11-21T05:01:11;100091.00;;;11.60
20289;BMP180;10303;51.960;8.372;2023-11-21T05:03:37;100091.00;;;11.60
20289;BMP180;10303;51.960;8.372;2023-11-21T05:06:05;100096.00;;;11.60
20289;BMP180;10303;51.960;8.372;2023-11-21T05:08:31;100084.00;;;11.60
20289;BMP180;10303;51.960;8.372;2023-11-21T05:10:57;100089.00;;;11.60
20289;BMP180;10303;51.960;8.372;2023-11-21T05:13:23;100094.00;;;11.60
20289;BMP180;10303;51.960;8.372;2023-11-21T05:15:54;100097.00;;;11.60
20289;BMP180;10303;51.960;8.372;2023-11-21T05:18:23;100100.00;;;11.60
20289;BMP180;10303;51.960;8.372;2023-11-21T05:20:49;100105.00;;;11.60
20289;BMP180;10303;51.960;8.372;2023-11-21T05:23:16;100107.00;;;11.60
20289;BMP180;10303;51.960;8.372;2023-11-21T05:25:41;100115.00;;;11.60
20289;BMP180;10303;51.960;8.372;2023-11-21T05:28:07;100109.00;;;11.60
20289;BMP180;10303;51.960;8.372;2023-11-21T05:30:33;100110.00;;;11.60
20289;BMP180;10303;51.960;8.372;2023-11-21T05:32:59;100114.00;;;11.60
20289;BMP180;10303;51.960;8.372;2023-11-21T05:35:25;100110.00;;;11.60
20289;BMP180;10303;51.960;8.372;2023-11-21T05:37:52;100113.00;;;11.50
20289;BMP180;10303;51.960;8.372;2023-11-21T05:40:18;100103.00;;;11.50
20289;BMP180;10303;51.960;8.372;2023-11-21T05:42:44;100112.00;;;11.50
20289;BMP180;10303;51.960;8.372;2023-11-21T05:45:11;100110.00;;;11.50
20289;BMP180;10303;51.960;8.372;2023-11-21T05:47:38;100108.00;;;11.50
20289;BMP180;10303;51.960;8.372;2023-11-21T05:50:08;100120.00;;;11.50
20289;BMP180;10303;51.960;8.372;2023-11-21T05:52:38;100117.00;;;11.50
20289;BMP180;10303;51.960;8.372;2023-11-21T05:55:08;100113.00;;;11.50
20289;BMP180;10303;51.960;8.372;2023-11-21T05:57:39;100113.00;;;11.50
20289;BMP180;10303;51.960;8.372;2023-11-21T06:00:07;100127.00;;;11.50
20289;BMP180;10303;51.960;8.372;2023-11-21T06:02:38;100142.00;;;11.50
20289;BMP180;10303;51.960;8.372;2023-11-21T06:05:06;100137.00;;;11.50
20289;BMP180;10303;51.960;8.372;2023-11-21T06:07:32;100140.00;;;11.50
20289;BMP180;10303;51.960;8.372;2023-11-21T06:09:59;100152.00;;;11.50
20289;BMP180;10303;51.960;8.372;2023-11-21T06:12:25;100156.00;;;11.50
20289;BMP180;10303;51.960;8.372;2023-11-21T06:14:51;100159.00;;;11.50
20289;BMP180;10303;51.960;8.372;2023-11-21T06:17:17;100162.00;;;11.50
20289;BMP180;10303;51.960;8.372;2023-11-21T06:19:44;100157.00;;;11.50
20289;BMP180;10303;51.960;8.372;2023-11-21T06:22:11;100165.00;;;11.50
20289;BMP180;10303;51.960;8.372;2023-11-21T06:24:37;100174.00;;;11.50
20289;BMP180;10303;51.960;8.372;2023-11-21T06:27:04;100175.00;;;11.50
20289;BMP180;10303;51.960;8.372;2023-11-21T06:29:30;100187.00;;;11.50
20289;BMP180;10303;51.960;8.372;2023-11-21T06:31:57;100188.00;;;11.50
20289;BMP180;10303;51.960;8.372;2023-11-21T06:34:24;100184.00;;;11.50
20289;BMP180;10303;51.960;8.372;2023-11-21T06:36:50;100189.00;;;11.50
20289;BMP180;10303;51.960;8.372;2023-11-21T06:39:17;100199.00;;;11.50
20289;BMP180;10303;51.960;8.372;2023-11-21T06:41:43;100203.00;;;11.50
20289;BMP180;10303;51.960;8.372;2023-11-21T06:44:09;100197.00;;;11.40
20289;BMP180;10303;51.960;8.372;2023-11-21T06:46:35;100209.00;;;11.40
20289;BMP180;10303;51.960;8.372;2023-11-21T06:49:01;100208.00;;;11.40
20289;BMP180;10303;51.960;8.372;2023-11-21T06:51:26;100208.00;;;11.40
20289;BMP180;10303;51.960;8.372;2023-11-21T06:53:52;100211.00;;;11.40
20289;BMP180;10303;51.960;8.372;2023-11-21T06:56:18;100226.00;;;11.40
20289;BMP180;10303;51.960;8.372;2023-11-21T06:58:48;100229.00;;;11.40
20289;BMP180;10303;51.960;8.372;2023-11-21T07:01:14;100224.00;;;11.40
20289;BMP180;10303;51.960;8.372;2023-11-21T07:03:41;100223.00;;;11.30
20289;BMP180;10303;51.960;8.372;2023-11-21T07:06:08;100227.00;;;11.30
20289;BMP180;10303;51.960;8.372;2023-11-21T07:08:34;100233.00;;;11.30
20289;BMP180;10303;51.960;8.372;2023-11-21T07:11:00;100235.00;;;11.30
20289;BMP180;10303;51.960;8.372;2023-11-21T07:13:26;100250.00;;;11.30
20289;BMP180;10303;51.960;8.372;2023-11-21T07:15:51;100238.00;;;11.30
20289;BMP180;10303;51.960;8.372;2023-11-21T07:18:18;100241.00;;;11.30
20289;BMP180;10303;51.960;8.372;2023-11-21T07:20:44;100249.00;;;11.30
20289;BMP180;10303;51.960;8.372;2023-11-21T07:23:09;100259.00;;;11.30
20289;BMP180;10303;51.960;8.372;2023-11-21T07:25:36;100260.00;;;11.30
20289;BMP180;10303;51.960;8.372;2023-11-21T07:28:02;100265.00;;;11.30
20289;BMP180;10303;51.960;8.372;2023-11-21T07:30:31;100263.00;;;11.30
20289;BMP180;10303;51.960;8.372;2023-11-21T07:32:57;100264.00;;;11.30
20289;BMP180;10303;51.960;8.372;2023-11-21T07:35:23;100270.00;;;11.30
20289;BMP180;10303;51.960;8.372;2023-11-21T07:37:49;100276.00;;;11.30
20289;BMP180;10303;51.960;8.372;2023-11-21T07:40:15;100279.00;;;11.30
20289;BMP180;10303;51.960;8.372;2023-11-21T07:42:42;100281.00;;;11.30
20289;BMP180;10303;51.960;8.372;2023-11-21T07:45:10;100288.00;;;11.30
20289;BMP180;10303;51.960;8.372;2023-11-21T07:47:37;100292.00;;;11.30
20289;BMP180;10303;51.960;8.372;2023-11-21T07:50:05;100288.00;;;11.30
20289;BMP180;10303;51.960;8.372;2023-11-21T07:52:33;100288.00;;;11.30
20289;BMP180;10303;51.960;8.372;2023-11-21T07:54:59;100283.00;;;11.30
20289;BMP180;10303;51.960;8.372;2023-11-21T07:57:25;100291.00;;;11.30
20289;BMP180;10303;51.960;8.372;2023-11-21T07:59:51;100295.00;;;11.30
20289;BMP180;10303;51.960;8.372;2023-11-21T08:02:19;100295.00;;;11.30
20289;BMP180;10303;51.960;8.372;2023-11-21T08:04:45;100290.00;;;11.30
20289;BMP180;10303;51.960;8.372;2023-11-21T08:07:11;100296.00;;;11.40
20289;BMP180;10303;51.960;8.372;2023-11-21T08:09:37;100294.00;;;11.40
20289;BMP180;10303;51.960;8.372;2023-11-21T08:12:04;100300.00;;;11.40
20289;BMP180;10303;51.960;8.372;2023-11-21T08:14:30;100302.00;;;11.40
20289;BMP180;10303;51.960;8.372;2023-11-21T08:16:56;100304.00;;;11.40
20289;BMP180;10303;51.960;8.372;2023-11-21T08:19:24;100304.00;;;11.40
20289;BMP180;10303;51.960;8.372;2023-11-21T08:21:52;100307.00;;;11.40
20289;BMP180;10303;51.960;8.372;2023-11-21T08:24:21;100323.00;;;11.40
20289;BMP180;10303;51.960;8.372;2023-11-21T08:26:47;100313.00;;;11.40
20289;BMP180;10303;51.960;8.372;2023-11-21T08:29:13;100320.00;;;11.40
20289;BMP180;10303;51.960;8.372;2023-11-21T08:31:39;100334.00;;;11.40
20289;BMP180;10303;51.960;8.372;2023-11-21T08:34:06;100335.00;;;11.50
20289;BMP180;10303;51.960;8.372;2023-11-21T08:36:32;100345.00;;;11.50
20289;BMP180;10303;51.960;8.372;2023-11-21T08:38:59;100340.00;;;11.50
20289;BMP180;10303;51.960;8.372;2023-11-21T08:41:24;100354.00;;;11.50
20289;BMP180;10303;51.960;8.372;2023-11-21T08:43:51;100355.00;;;11.50
20289;BMP180;10303;51.960;8.372;2023-11-21T08:46:17;100361.00;;;11.60
20289;BMP180;10303;51.960;8.372;2023-11-21T08:48:44;100349.00;;;11.50
20289;BMP180;10303;51.960;8.372;2023-11-21T08:51:11;100365.00;;;11.60
20289;BMP180;10303;51.960;8.372;2023-11-21T08:53:39;100356.00;;;11.60
20289;BMP180;10303;51.960;8.372;2023-11-21T08:56:06;100359.00;;;11.70
20289;BMP180;10303;51.960;8.372;2023-11-21T08:58:32;100377.00;;;11.70
20289;BMP180;10303;51.960;8.372;2023-11-21T09:00:58;100378.00;;;11.70
20289;BMP180;10303;51.960;8.372;2023-11-21T09:03:24;100382.00;;;11.80
20289;BMP180;10303;51.960;8.372;2023-11-21T09:05:51;100381.00;;;11.80
20289;BMP180;10303;51.960;8.372;2023-11-21T09:08:17;100388.00;;;11.80
20289;BMP180;10303;51.960;8.372;2023-11-21T09:10:43;100385.00;;;11.90
20289;BMP180;10303;51.960;8.372;2023-11-21T09:13:13;100386.00;;;11.90
20289;BMP180;10303;51.960;8.372;2023-11-21T09:15:39;100381.00;;;11.90
20289;BMP180;10303;51.960;8.372;2023-11-21T09:18:05;100381.00;;;11.90
20289;BMP180;10303;51.960;8.372;2023-11-21T09:20:31;100393.00;;;12.00
20289;BMP180;10303;51.960;8.372;2023-11-21T09:22:57;100392.00;;;12.00
20289;BMP180;10303;51.960;8.372;2023-11-21T09:25:23;100392.00;;;12.00
20289;BMP180;10303;51.960;8.372;2023-11-21T09:27:49;100392.00;;;12.10
20289;BMP180;10303;51.960;8.372;2023-11-21T09:30:15;100404.00;;;12.10
20289;BMP180;10303;51.960;8.372;2023-11-21T09:32:42;100402.00;;;12.10
20289;BMP180;10303;51.960;8.372;2023-11-21T09:35:11;100409.00;;;12.10
20289;BMP180;10303;51.960;8.372;2023-11-21T09:37:39;100413.00;;;12.20
20289;BMP180;10303;51.960;8.372;2023-11-21T09:40:10;100416.00;;;12.20
20289;BMP180;10303;51.960;8.372;2023-11-21T09:42:57;100420.00;;;12.20
20289;BMP180;10303;51.960;8.372;2023-11-21T09:45:28;100419.00;;;12.20
20289;BMP180;10303;51.960;8.372;2023-11-21T09:47:57;100431.00;;;12.30
20289;BMP180;10303;51.960;8.372;2023-11-21T09:50:24;100435.00;;;12.30
20289;BMP180;10303;51.960;8.372;2023-11-21T09:53:17;100435.00;;;12.30
20289;BMP180;10303;51.960;8.372;2023-11-21T09:55:45;100443.00;;;12.30
20289;BMP180;10303;51.960;8.372;2023-11-21T09:58:13;100444.00;;;12.40
20289;BMP180;10303;51.960;8.372;2023-11-21T10:00:48;100440.00;;;12.40
20289;BMP180;10303;51.960;8.372;2023-11-21T10:03:15;100447.00;;;12.50
20289;BMP180;10303;51.960;8.372;2023-11-21T10:05:43;100452.00;;;12.50
20289;BMP180;10303;51.960;8.372;2023-11-21T10:08:12;100445.00;;;12.50
20289;BMP180;10303;51.960;8.372;2023-11-21T10:10:49;100453.00;;;12.50
20289;BMP180;10303;51.960;8.372;2023-11-21T10:13:18;100455.00;;;12.60
20289;BMP180;10303;51.960;8.372;2023-11-21T10:15:51;100464.00;;;12.60
20289;BMP180;10303;51.960;8.372;2023-11-21T10:18:17;100458.00;;;12.60
20289;BMP180;10303;51.960;8.372;2023-11-21T10:20:44;100476.00;;;12.60
20289;BMP180;10303;51.960;8.372;2023-11-21T10:23:19;100466.00;;;12.60
20289;BMP180;10303;51.960;8.372;2023-11-21T10:25:46;100473.00;;;12.60
20289;BMP180;10303;51.960;8.372;2023-11-21T10:28:12;100469.00;;;12.60
20289;BMP180;10303;51.960;8.372;2023-11-21T10:30:39;100474.00;;;12.70
20289;BMP180;10303;51.960;8.372;2023-11-21T10:33:07;100469.00;;;12.70
20289;BMP180;10303;51.960;8.372;2023-11-21T10:35:49;100479.00;;;12.70
20289;BMP180;10303;51.960;8.372;2023-11-21T10:38:21;100476.00;;;12.70
20289;BMP180;10303;51.960;8.372;2023-11-21T10:40:49;100469.00;;;12.70
20289;BMP180;10303;51.960;8.372;2023-11-21T10:43:17;100467.00;;;12.80
20289;BMP180;10303;51.960;8.372;2023-11-21T10:45:44;100480.00;;;12.70
20289;BMP180;10303;51.960;8.372;2023-11-21T10:48:15;100481.00;;;12.70
20289;BMP180;10303;51.960;8.372;2023-11-21T10:50:47;100484.00;;;12.70
20289;BMP180;10303;51.960;8.372;2023-11-21T10:53:13;100480.00;;;12.70
20289;BMP180;10303;51.960;8.372;2023-11-21T10:55:39;100491.00;;;12.70
20289;BMP180;10303;51.960;8.372;2023-11-21T10:58:06;100476.00;;;12.70
20289;BMP180;10303;51.960;8.372;2023-11-21T11:00:34;100481.00;;;12.70
20289;BMP180;10303;51.960;8.372;2023-11-21T11:03:00;100498.00;;;12.70
20289;BMP180;10303;51.960;8.372;2023-11-21T11:05:29;100494.00;;;12.60
20289;BMP180;10303;51.960;8.372;2023-11-21T11:08:06;100490.00;;;12.60
20289;BMP180;10303;51.960;8.372;2023-11-21T11:10:33;100493.00;;;12.60
20289;BMP180;10303;51.960;8.372;2023-11-21T11:13:00;100516.00;;;12.60
20289;BMP180;10303;51.960;8.372;2023-11-21T11:15:28;100520.00;;;12.60
20289;BMP180;10303;51.960;8.372;2023-11-21T11:17:54;100520.00;;;12.60
20289;BMP180;10303;51.960;8.372;2023-11-21T11:20:33;100521.00;;;12.50
20289;BMP180;10303;51.960;8.372;2023-11-21T11:35:06;100550.00;;;12.30
20289;BMP180;10303;51.960;8.372;2023-11-21T11:37:33;100542.00;;;12.40
20289;BMP180;10303;51.960;8.372;2023-11-21T11:40:00;100546.00;;;12.40
20289;BMP180;10303;51.960;8.372;2023-11-21T11:42:26;100544.00;;;12.30
20289;BMP180;10303;51.960;8.372;2023-11-21T11:44:53;100541.00;;;12.30
20289;BMP180;10303;51.960;8.372;2023-11-21T11:47:28;100538.00;;;12.30
20289;BMP180;10303;51.960;8.372;2023-11-21T11:50:10;100545.00;;;12.30
20289;BMP180;10303;51.960;8.372;2023-11-21T11:52:47;100549.00;;;12.30
20289;BMP180;10303;51.960;8.372;2023-11-21T11:55:16;100548.00;;;12.30
20289;BMP180;10303;51.960;8.372;2023-11-21T11:57:47;100549.00;;;12.30
20289;BMP180;10303;51.960;8.372;2023-11-21T12:02:58;100549.00;;;12.30
20289;BMP180;10303;51.960;8.372;2023-11-21T12:05:26;100567.00;;;12.30
20289;BMP180;10303;51.960;8.372;2023-11-21T12:08:01;100563.00;;;12.20
20289;BMP180;10303;51.960;8.372;2023-11-21T12:10:30;100564.00;;;12.20
20289;BMP180;10303;51.960;8.372;2023-11-21T12:12:58;100563.00;;;12.20
20289;BMP180;10303;51.960;8.372;2023-11-21T12:15:25;100577.00;;;12.10
20289;BMP180;10303;51.960;8.372;2023-11-21T12:17:52;100577.00;;;12.10
20289;BMP180;10303;51.960;8.372;2023-11-21T12:20:20;100582.00;;;12.10
20289;BMP180;10303;51.960;8.372;2023-11-21T12:25:15;100592.00;;;12.10
20289;BMP180;10303;51.960;8.372;2023-11-21T12:27:46;100593.00;;;12.10
20289;BMP180;10303;51.960;8.372;2023-11-21T12:30:16;100604.00;;;12.10
20289;BMP180;10303;51.960;8.372;2023-11-21T12:32:44;100605.00;;;12.00
20289;BMP180;10303;51.960;8.372;2023-11-21T12:35:12;100597.00;;;12.00
20289;BMP180;10303;51.960;8.372;2023-11-21T12:37:40;100603.00;;;12.00
20289;BMP180;10303;51.960;8.372;2023-11-21T12:40:07;100604.00;;;12.00
20289;BMP180;10303;51.960;8.372;2023-11-21T12:42:34;100607.00;;;11.90
20289;BMP180;10303;51.960;8.372;2023-11-21T12:48:03;100606.00;;;11.80
20289;BMP180;10303;51.960;8.372;2023-11-21T12:50:35;100614.00;;;11.80
20289;BMP180;10303;51.960;8.372;2023-11-21T12:53:12;100619.00;;;11.80
20289;BMP180;10303;51.960;8.372;2023-11-21T12:55:38;100619.00;;;11.80
20289;BMP180;10303;51.960;8.372;2023-11-21T12:58:09;100624.00;;;11.80
20289;BMP180;10303;51.960;8.372;2023-11-21T13:00:39;100616.00;;;11.80
20289;BMP180;10303;51.960;8.372;2023-11-21T13:03:10;100617.00;;;11.90
20289;BMP180;10303;51.960;8.372;2023-11-21T13:05:40;100622.00;;;12.00
20289;BMP180;10303;51.960;8.372;2023-11-21T13:08:12;100633.00;;;12.00
20289;BMP180;10303;51.960;8.372;2023-11-21T13:10:43;100637.00;;;12.10
20289;BMP180;10303;51.960;8.372;2023-11-21T13:13:12;100631.00;;;12.20
20289;BMP180;10303;51.960;8.372;2023-11-21T13:15:55;100647.00;;;12.20
20289;BMP180;10303;51.960;8.372;2023-11-21T13:18:28;100653.00;;;12.20
20289;BMP180;10303;51.960;8.372;2023-11-21T13:20:57;100662.00;;;12.20
20289;BMP180;10303;51.960;8.372;2023-11-21T13:23:24;100655.00;;;12.20
20289;BMP180;10303;51.960;8.372;2023-11-21T13:25:50;100655.00;;;12.20
20289;BMP180;10303;51.960;8.372;2023-11-21T13:28:17;100668.00;;;12.10
20289;BMP180;10303;51.960;8.372;2023-11-21T13:30:49;100664.00;;;12.10
20289;BMP180;10303;51.960;8.372;2023-11-21T13:33:18;100678.00;;;12.10
20289;BMP180;10303;51.960;8.372;2023-11-21T13:35:48;100679.00;;;12.10
20289;BMP180;10303;51.960;8.372;2023-11-21T13:38:18;100686.00;;;12.00
20289;BMP180;10303;51.960;8.372;2023-11-21T13:40:52;100687.00;;;12.00
20289;BMP180;10303;51.960;8.372;2023-11-21T13:43:21;100698.00;;;12.00
20289;BMP180;10303;51.960;8.372;2023-11-21T13:45:50;100703.00;;;12.00
20289;BMP180;10303;51.960;8.372;2023-11-21T13:48:21;100706.00;;;12.00
20289;BMP180;10303;51.960;8.372;2023-11-21T13:50:54;100698.00;;;12.00
20289;BMP180;10303;51.960;8.372;2023-11-21T13:53:38;100704.00;;;11.90
20289;BMP180;10303;51.960;8.372;2023-11-21T13:56:07;100719.00;;;11.90
20289;BMP180;10303;51.960;8.372;2023-11-21T13:58:34;100722.00;;;11.90
20289;BMP180;10303;51.960;8.372;2023-11-21T14:01:22;100734.00;;;11.80
20289;BMP180;10303;51.960;8.372;2023-11-21T14:04:03;100734.00;;;11.80
20289;BMP180;10303;51.960;8.372;2023-11-21T14:06:43;100744.00;;;11.80
20289;BMP180;10303;51.960;8.372;2023-11-21T14:09:22;100745.00;;;11.80
20289;BMP180;10303;51.960;8.372;2023-11-21T14:11:56;100740.00;;;11.70
20289;BMP180;10303;51.960;8.372;2023-11-21T14:14:26;100747.00;;;11.70
20289;BMP180;10303;51.960;8.372;2023-11-21T14:16:52;100745.00;;;11.80
20289;BMP180;10303;51.960;8.372;2023-11-21T14:19:19;100756.00;;;11.80
20289;BMP180;10303;51.960;8.372;2023-11-21T14:21:46;100748.00;;;11.80
20289;BMP180;10303;51.960;8.372;2023-11-21T14:24:12;100749.00;;;11.80